Time;durP1;ratioP1;P1;durP2;ratioP2;P2;SDS_P1;SDS_P2;PMS_P1;PMS_P2;Temp;Humidity;BMP_temperature;BMP_pressure;BME280_temperature;BME280_humidity;BME280_pressure;Samples;Min_cycle;Max_cycle;Signal;HPM_P1;HPM_P2
2022/10/19 00:01:45;;;;;;;;;;;17.20;98.10;;;;;;5059437;28;19915;-52
2022/10/19 00:04:10;;;;;;;;;;;17.20;98.60;;;;;;5059518;28;19909;-55
2022/10/19 00:06:36;;;;;;;;;;;17.20;99.00;;;;;;5059009;28;19925;-53
2022/10/19 00:09:12;;;;;;;;;;;17.30;99.50;;;;;;5059327;28;19920;-55
2022/10/19 00:11:41;;;;;;;;;;;17.20;99.20;;;;;;5058791;28;19909;-53
2022/10/19 00:14:07;;;;;;;;;;;17.20;99.00;;;;;;5059328;28;19928;-53
2022/10/19 00:16:35;;;;;;;;;;;17.20;98.30;;;;;;5059055;28;19916;-50
2022/10/19 00:19:02;;;;;;;;;;;17.10;98.30;;;;;;5059193;28;19909;-52
2022/10/19 00:21:28;;;;;;;;;;;17.10;98.10;;;;;;5058987;28;19909;-51
2022/10/19 00:23:54;;;;;;;;;;;17.10;98.30;;;;;;5059304;28;19913;-52
2022/10/19 00:26:19;;;;;;;;;;;17.00;98.70;;;;;;5058862;28;19930;-55
2022/10/19 00:28:45;;;;;;;;;;;17.00;98.80;;;;;;5059214;28;19981;-55
2022/10/19 00:31:12;;;;;;;;;;;17.00;98.30;;;;;;5058964;28;19909;-54
2022/10/19 00:33:38;;;;;;;;;;;17.00;98.40;;;;;;5058995;28;19909;-56
2022/10/19 00:36:04;;;;;;;;;;;17.00;98.80;;;;;;5058746;28;19972;-56
2022/10/19 00:38:29;;;;;;;;;;;16.90;98.20;;;;;;5059046;28;19940;-54
2022/10/19 00:40:55;;;;;;;;;;;16.90;98.40;;;;;;5058785;28;19991;-54
2022/10/19 00:43:22;;;;;;;;;;;16.90;98.60;;;;;;5058839;28;20043;-53
2022/10/19 00:45:48;;;;;;;;;;;16.90;98.40;;;;;;5058539;28;19916;-54
2022/10/19 00:48:15;;;;;;;;;;;16.90;98.60;;;;;;5057938;28;19912;-55
2022/10/19 00:50:41;;;;;;;;;;;16.90;99.00;;;;;;5058914;28;19958;-53
2022/10/19 00:53:07;;;;;;;;;;;16.90;99.30;;;;;;5058831;28;19947;-54
2022/10/19 00:55:33;;;;;;;;;;;16.90;99.00;;;;;;5058310;28;19909;-56
2022/10/19 00:57:59;;;;;;;;;;;17.00;98.90;;;;;;5058548;28;19908;-52
2022/10/19 01:00:25;;;;;;;;;;;17.00;98.70;;;;;;5058192;28;19943;-55
2022/10/19 01:02:50;;;;;;;;;;;17.00;98.80;;;;;;5058464;28;19912;-54
2022/10/19 01:05:16;;;;;;;;;;;17.00;98.90;;;;;;5058174;28;19925;-54
2022/10/19 01:07:42;;;;;;;;;;;17.00;98.90;;;;;;5058019;28;20327;-53
2022/10/19 01:10:08;;;;;;;;;;;17.00;99.00;;;;;;5058416;28;20285;-52
2022/10/19 01:12:53;;;;;;;;;;;17.00;99.90;;;;;;5058236;28;20396;-53
2022/10/19 01:15:44;;;;;;;;;;;17.00;99.40;;;;;;5057925;28;19935;-53
2022/10/19 01:18:09;;;;;;;;;;;17.00;99.20;;;;;;5058003;28;19915;-55
2022/10/19 01:20:38;;;;;;;;;;;17.00;99.40;;;;;;5057956;28;19980;-53
2022/10/19 01:23:03;;;;;;;;;;;17.00;99.50;;;;;;5057293;28;20003;-56
2022/10/19 01:25:37;;;;;;;;;;;17.00;99.00;;;;;;5058089;28;19963;-54
2022/10/19 01:28:06;;;;;;;;;;;17.00;99.40;;;;;;5057799;28;19956;-52
2022/10/19 01:30:50;;;;;;;;;;;17.00;99.30;;;;;;5057802;28;19909;-53
2022/10/19 01:33:18;;;;;;;;;;;17.00;98.90;;;;;;5057946;28;20000;-56
2022/10/19 01:36:07;;;;;;;;;;;17.10;99.00;;;;;;5057976;28;19909;-54
2022/10/19 01:38:42;;;;;;;;;;;17.10;99.60;;;;;;5057037;28;19909;-56
2022/10/19 01:41:15;;;;;;;;;;;17.10;98.90;;;;;;5057924;28;19931;-56
2022/10/19 01:43:48;;;;;;;;;;;17.10;99.40;;;;;;5057884;28;19916;-53
2022/10/19 01:46:16;;;;;;;;;;;17.10;99.40;;;;;;5057889;28;19909;-55
2022/10/19 01:48:45;;;;;;;;;;;17.10;99.70;;;;;;5057548;28;19913;-53
2022/10/19 01:51:19;;;;;;;;;;;17.10;99.50;;;;;;5057741;28;19915;-56
2022/10/19 01:53:48;;;;;;;;;;;17.20;99.90;;;;;;5056081;28;20403;-53
2022/10/19 01:56:15;;;;;;;;;;;17.20;99.60;;;;;;5057789;28;19908;-54
2022/10/19 01:58:43;;;;;;;;;;;17.20;99.60;;;;;;5057826;28;20388;-53
2022/10/19 02:01:09;;;;;;;;;;;17.20;99.90;;;;;;5057795;28;20379;-53
2022/10/19 02:03:35;;;;;;;;;;;17.30;99.90;;;;;;5057693;28;19909;-54
2022/10/19 02:06:05;;;;;;;;;;;17.30;99.90;;;;;;5057501;28;19921;-54
2022/10/19 02:08:35;;;;;;;;;;;17.30;99.90;;;;;;5057372;28;19955;-55
2022/10/19 02:11:01;;;;;;;;;;;17.30;99.90;;;;;;5057587;28;19909;-54
2022/10/19 02:13:28;;;;;;;;;;;17.30;99.90;;;;;;5057579;28;20019;-52
2022/10/19 02:15:55;;;;;;;;;;;17.30;99.90;;;;;;5057599;28;19912;-55
2022/10/19 02:18:24;;;;;;;;;;;17.30;99.90;;;;;;5057355;28;19916;-55
2022/10/19 02:20:50;;;;;;;;;;;17.30;99.90;;;;;;5057364;28;19912;-53
2022/10/19 02:23:17;;;;;;;;;;;17.30;99.90;;;;;;5057470;28;19971;-54
2022/10/19 02:25:43;;;;;;;;;;;17.30;99.80;;;;;;5056196;28;19931;-51
2022/10/19 02:28:08;;;;;;;;;;;17.30;99.40;;;;;;5057213;28;20007;-52
2022/10/19 02:30:34;;;;;;;;;;;17.30;99.90;;;;;;5057429;28;19978;-53
2022/10/19 02:33:00;;;;;;;;;;;17.40;99.90;;;;;;5057588;28;20005;-52
2022/10/19 02:35:25;;;;;;;;;;;17.30;99.90;;;;;;5061079;28;19930;-56
2022/10/19 02:37:51;;;;;;;;;;;17.30;99.90;;;;;;5061351;28;19974;-52
2022/10/19 02:40:17;;;;;;;;;;;17.30;99.70;;;;;;5060949;28;19913;-53
2022/10/19 02:42:55;;;;;;;;;;;17.30;99.90;;;;;;5061661;28;19996;-51
2022/10/19 02:45:28;;;;;;;;;;;17.20;99.50;;;;;;5060789;28;19908;-55
2022/10/19 02:47:57;;;;;;;;;;;17.30;99.90;;;;;;5060970;28;19913;-55
2022/10/19 02:50:22;;;;;;;;;;;17.20;99.70;;;;;;5061169;28;19908;-52
2022/10/19 02:52:48;;;;;;;;;;;17.20;99.50;;;;;;5060636;28;19915;-52
2022/10/19 02:55:14;;;;;;;;;;;17.30;99.90;;;;;;5060603;28;19944;-52
2022/10/19 02:57:39;;;;;;;;;;;17.30;99.90;;;;;;5060370;28;19916;-52
2022/10/19 03:00:06;;;;;;;;;;;17.30;99.90;;;;;;5060516;28;19912;-54
2022/10/19 03:02:31;;;;;;;;;;;17.30;99.90;;;;;;5060449;28;19916;-53
2022/10/19 03:04:57;;;;;;;;;;;17.30;99.90;;;;;;5060483;28;19921;-54
2022/10/19 03:07:23;;;;;;;;;;;17.30;99.90;;;;;;5060739;28;19909;-56
2022/10/19 03:09:49;;;;;;;;;;;17.30;99.90;;;;;;5060250;28;19913;-54
2022/10/19 03:12:15;;;;;;;;;;;17.30;99.80;;;;;;5060676;28;19944;-55
2022/10/19 03:14:41;;;;;;;;;;;17.30;99.90;;;;;;5060260;28;19909;-53
2022/10/19 03:17:06;;;;;;;;;;;17.30;99.70;;;;;;5061013;28;20344;-53
2022/10/19 03:19:33;;;;;;;;;;;17.40;99.90;;;;;;5060335;28;19909;-52
2022/10/19 03:21:58;;;;;;;;;;;17.40;99.90;;;;;;5060096;28;19915;-54
2022/10/19 03:24:24;;;;;;;;;;;17.40;99.90;;;;;;5060072;28;19948;-54
2022/10/19 03:26:49;;;;;;;;;;;17.40;99.90;;;;;;5060301;28;19909;-52
2022/10/19 03:29:15;;;;;;;;;;;17.40;99.90;;;;;;5060101;28;19912;-54
2022/10/19 03:31:41;;;;;;;;;;;17.40;99.90;;;;;;5060172;28;19909;-55
2022/10/19 03:34:06;;;;;;;;;;;17.40;99.90;;;;;;5059837;28;19909;-54
2022/10/19 03:36:36;;;;;;;;;;;17.40;99.90;;;;;;5059967;28;19909;-52
2022/10/19 03:39:04;;;;;;;;;;;17.50;99.90;;;;;;5059932;28;19916;-52
2022/10/19 03:41:31;;;;;;;;;;;17.40;99.90;;;;;;5059898;28;19955;-52
2022/10/19 03:43:57;;;;;;;;;;;17.40;99.90;;;;;;5060135;28;19912;-50
2022/10/19 03:46:23;;;;;;;;;;;17.50;99.90;;;;;;5059008;28;20407;-51
2022/10/19 03:48:49;;;;;;;;;;;17.50;99.90;;;;;;5059481;28;19913;-56
2022/10/19 03:51:22;;;;;;;;;;;17.50;99.90;;;;;;5059504;28;19944;-52
2022/10/19 03:53:51;;;;;;;;;;;17.50;99.90;;;;;;5059741;28;19913;-56
2022/10/19 03:56:18;;;;;;;;;;;17.50;99.90;;;;;;5059662;28;19909;-54
2022/10/19 03:58:45;;;;;;;;;;;17.50;99.90;;;;;;5059570;28;19912;-53
2022/10/19 04:01:11;;;;;;;;;;;17.50;99.90;;;;;;5059268;28;19909;-56
2022/10/19 04:03:37;;;;;;;;;;;17.50;99.90;;;;;;5059560;28;19920;-51
2022/10/19 04:06:04;;;;;;;;;;;17.50;99.90;;;;;;5059019;28;19920;-54
2022/10/19 04:08:30;;;;;;;;;;;17.50;99.90;;;;;;5059390;28;19939;-54
2022/10/19 04:11:07;;;;;;;;;;;17.50;99.90;;;;;;5059080;28;19909;-56
2022/10/19 04:13:33;;;;;;;;;;;17.50;99.90;;;;;;5059434;28;19913;-54
2022/10/19 04:15:58;;;;;;;;;;;17.40;99.90;;;;;;5059287;28;19913;-54
2022/10/19 04:18:24;;;;;;;;;;;17.40;99.90;;;;;;5059226;28;19954;-54
2022/10/19 04:20:56;;;;;;;;;;;17.40;99.90;;;;;;5058976;28;19967;-53
2022/10/19 04:23:22;;;;;;;;;;;17.40;99.90;;;;;;5059422;28;20027;-55
2022/10/19 04:25:48;;;;;;;;;;;17.30;99.90;;;;;;5059123;28;19952;-52
2022/10/19 04:28:13;;;;;;;;;;;17.30;99.90;;;;;;5058953;28;19912;-55
2022/10/19 04:30:39;;;;;;;;;;;17.40;99.90;;;;;;5058800;28;20401;-53
2022/10/19 04:33:04;;;;;;;;;;;17.30;99.90;;;;;;5058929;28;19908;-56
2022/10/19 04:35:30;;;;;;;;;;;17.30;99.90;;;;;;5058731;28;19913;-50
2022/10/19 04:37:57;;;;;;;;;;;17.30;99.90;;;;;;5059020;28;19909;-53
2022/10/19 04:40:22;;;;;;;;;;;17.30;99.90;;;;;;5058921;28;19908;-53
2022/10/19 04:42:48;;;;;;;;;;;17.30;99.90;;;;;;5058824;28;19935;-53
2022/10/19 04:45:14;;;;;;;;;;;17.30;99.90;;;;;;5058738;28;19916;-53
2022/10/19 04:47:39;;;;;;;;;;;17.20;99.90;;;;;;5058626;28;19908;-55
2022/10/19 04:50:05;;;;;;;;;;;17.20;99.90;;;;;;5058451;28;19916;-52
2022/10/19 04:52:30;;;;;;;;;;;17.20;99.90;;;;;;5058648;28;19913;-57
2022/10/19 04:54:56;;;;;;;;;;;17.20;99.90;;;;;;5058385;28;19913;-57
2022/10/19 04:57:21;;;;;;;;;;;17.20;99.90;;;;;;5058682;28;19908;-57
2022/10/19 04:59:47;;;;;;;;;;;17.20;99.90;;;;;;5058267;28;19952;-56
2022/10/19 05:02:13;;;;;;;;;;;17.20;99.90;;;;;;5058626;28;19956;-57
2022/10/19 05:04:38;;;;;;;;;;;17.20;99.90;;;;;;5058457;28;19908;-56
2022/10/19 05:07:04;;;;;;;;;;;17.20;99.90;;;;;;5058002;28;19974;-56
2022/10/19 05:09:29;;;;;;;;;;;17.20;99.90;;;;;;5057908;28;19913;-56
2022/10/19 05:11:55;;;;;;;;;;;17.20;99.90;;;;;;5058356;28;19909;-56
2022/10/19 05:14:21;;;;;;;;;;;17.20;99.90;;;;;;5058272;28;19909;-56
2022/10/19 05:16:46;;;;;;;;;;;17.20;99.90;;;;;;5058076;28;19909;-56
2022/10/19 05:19:12;;;;;;;;;;;17.20;99.90;;;;;;5058487;28;20000;-56
2022/10/19 05:21:38;;;;;;;;;;;17.20;99.90;;;;;;5057986;28;19916;-56
2022/10/19 05:24:04;;;;;;;;;;;17.20;99.90;;;;;;5058153;28;19912;-57
2022/10/19 05:26:30;;;;;;;;;;;17.20;99.90;;;;;;5058303;28;19913;-56
2022/10/19 05:29:01;;;;;;;;;;;17.10;99.90;;;;;;5058043;28;20351;-56
2022/10/19 05:31:28;;;;;;;;;;;17.10;99.90;;;;;;5057614;28;20353;-56
2022/10/19 05:33:55;;;;;;;;;;;17.10;99.90;;;;;;5057807;28;19908;-56
2022/10/19 05:36:20;;;;;;;;;;;17.10;99.90;;;;;;5057797;28;19962;-56
2022/10/19 05:38:47;;;;;;;;;;;17.10;99.90;;;;;;5057802;28;19909;-56
2022/10/19 05:41:13;;;;;;;;;;;17.10;99.90;;;;;;5058473;28;19909;-56
2022/10/19 05:43:39;;;;;;;;;;;17.10;99.90;;;;;;5058438;28;19940;-56
2022/10/19 05:46:06;;;;;;;;;;;17.10;99.90;;;;;;5057984;28;19931;-57
2022/10/19 05:48:34;;;;;;;;;;;17.00;99.90;;;;;;5057876;28;20008;-55
2022/10/19 05:51:01;;;;;;;;;;;17.00;99.90;;;;;;5058074;28;19940;-56
2022/10/19 05:53:27;;;;;;;;;;;17.00;99.90;;;;;;5057667;28;19931;-56
2022/10/19 05:55:52;;;;;;;;;;;17.00;99.90;;;;;;5057872;28;19909;-57
2022/10/19 05:58:18;;;;;;;;;;;17.10;99.90;;;;;;5058105;28;19970;-56
2022/10/19 06:00:49;;;;;;;;;;;17.00;99.90;;;;;;5058016;28;19947;-57
2022/10/19 06:03:16;;;;;;;;;;;17.00;99.90;;;;;;5058065;28;19912;-57
2022/10/19 06:05:42;;;;;;;;;;;17.00;99.90;;;;;;5058013;28;19927;-56
2022/10/19 06:08:07;;;;;;;;;;;17.00;99.90;;;;;;5057962;28;19924;-57
2022/10/19 06:10:33;;;;;;;;;;;17.00;99.90;;;;;;5061498;28;19999;-57
2022/10/19 06:12:58;;;;;;;;;;;16.90;99.90;;;;;;5061628;28;19909;-56
2022/10/19 06:15:24;;;;;;;;;;;16.90;99.90;;;;;;5061951;28;19909;-56
2022/10/19 06:17:50;;;;;;;;;;;16.90;99.90;;;;;;5061897;28;19951;-56
2022/10/19 06:20:15;;;;;;;;;;;16.90;99.90;;;;;;5061999;28;19955;-56
2022/10/19 06:22:41;;;;;;;;;;;16.90;99.90;;;;;;5061776;28;19916;-56
2022/10/19 06:25:07;;;;;;;;;;;16.90;99.90;;;;;;5061511;28;20558;-57
2022/10/19 06:27:33;;;;;;;;;;;16.90;99.90;;;;;;5061657;28;19909;-56
2022/10/19 06:29:58;;;;;;;;;;;16.90;99.90;;;;;;5061834;28;19912;-56
2022/10/19 06:32:24;;;;;;;;;;;16.90;99.90;;;;;;5061221;28;19909;-56
2022/10/19 06:34:49;;;;;;;;;;;16.90;99.90;;;;;;5061562;28;19916;-56
2022/10/19 06:37:15;;;;;;;;;;;16.90;99.90;;;;;;5061677;28;20376;-56
2022/10/19 06:39:41;;;;;;;;;;;16.90;99.90;;;;;;5061246;28;19909;-56
2022/10/19 06:42:08;;;;;;;;;;;16.90;99.90;;;;;;5061456;28;19909;-56
2022/10/19 06:44:33;;;;;;;;;;;16.90;99.90;;;;;;5061406;28;19908;-56
2022/10/19 06:46:59;;;;;;;;;;;16.90;99.90;;;;;;5061602;28;19931;-56
2022/10/19 06:49:25;;;;;;;;;;;16.90;99.90;;;;;;5061262;28;19967;-57
2022/10/19 06:51:50;;;;;;;;;;;17.00;99.90;;;;;;5061604;28;20003;-56
2022/10/19 06:54:16;;;;;;;;;;;16.90;99.90;;;;;;5061355;28;19909;-56
2022/10/19 06:56:41;;;;;;;;;;;16.90;99.90;;;;;;5061303;28;20008;-56
2022/10/19 06:59:07;;;;;;;;;;;16.90;99.90;;;;;;5061092;28;20444;-56
2022/10/19 07:01:33;;;;;;;;;;;17.00;99.90;;;;;;5059422;28;19908;-56
2022/10/19 07:03:58;;;;;;;;;;;17.00;99.90;;;;;;5061222;28;19909;-56
2022/10/19 07:06:25;;;;;;;;;;;17.10;99.90;;;;;;5060669;28;19921;-57
2022/10/19 07:08:51;;;;;;;;;;;17.10;99.90;;;;;;5061091;28;20041;-56
2022/10/19 07:11:18;;;;;;;;;;;17.10;99.90;;;;;;5060690;28;20081;-55
2022/10/19 07:13:44;;;;;;;;;;;17.10;99.90;;;;;;5060583;28;20364;-56
2022/10/19 07:16:11;;;;;;;;;;;17.20;99.90;;;;;;5060864;28;19916;-56
2022/10/19 07:18:38;;;;;;;;;;;17.20;99.90;;;;;;5060714;28;19909;-56
2022/10/19 07:21:05;;;;;;;;;;;17.20;99.90;;;;;;5059460;28;20369;-56
2022/10/19 07:23:31;;;;;;;;;;;17.20;99.90;;;;;;5060614;28;19962;-56
2022/10/19 07:26:02;;;;;;;;;;;17.30;99.90;;;;;;5060325;28;19950;-56
2022/10/19 07:28:28;;;;;;;;;;;17.30;99.90;;;;;;5059877;28;20388;-55
2022/10/19 07:30:54;;;;;;;;;;;17.40;99.90;;;;;;5060221;28;19909;-56
2022/10/19 07:33:20;;;;;;;;;;;17.40;99.90;;;;;;5060357;28;20269;-56
2022/10/19 07:35:45;;;;;;;;;;;17.50;99.90;;;;;;5060112;28;19909;-55
2022/10/19 07:38:11;;;;;;;;;;;17.50;99.90;;;;;;5059351;28;20264;-53
2022/10/19 07:40:36;;;;;;;;;;;17.50;99.90;;;;;;5059553;28;19928;-57
2022/10/19 07:43:02;;;;;;;;;;;17.60;99.90;;;;;;5059711;28;19908;-57
2022/10/19 07:45:28;;;;;;;;;;;17.60;99.90;;;;;;5059533;28;19909;-56
2022/10/19 07:47:54;;;;;;;;;;;17.60;99.90;;;;;;5059191;28;19908;-57
2022/10/19 07:50:21;;;;;;;;;;;17.60;99.90;;;;;;5059673;28;19991;-57
2022/10/19 07:52:47;;;;;;;;;;;17.60;99.90;;;;;;5059620;28;19913;-56
2022/10/19 07:55:13;;;;;;;;;;;17.70;99.90;;;;;;5059805;28;20654;-56
2022/10/19 07:57:38;;;;;;;;;;;17.70;99.90;;;;;;5059821;28;20283;-57
2022/10/19 08:00:04;;;;;;;;;;;17.70;99.90;;;;;;5057169;28;19966;-56
2022/10/19 08:02:30;;;;;;;;;;;17.80;99.90;;;;;;5056868;28;19940;-56
2022/10/19 08:04:55;;;;;;;;;;;17.80;99.90;;;;;;5057117;28;20257;-56
2022/10/19 08:07:21;;;;;;;;;;;17.90;99.90;;;;;;5059462;28;19909;-56
2022/10/19 08:09:46;;;;;;;;;;;18.00;99.90;;;;;;5059471;28;19920;-56
2022/10/19 08:12:12;;;;;;;;;;;18.10;99.90;;;;;;5059202;28;19916;-56
2022/10/19 08:14:38;;;;;;;;;;;18.20;99.90;;;;;;5059357;28;19942;-57
2022/10/19 08:17:03;;;;;;;;;;;18.30;99.90;;;;;;5059523;28;19988;-56
2022/10/19 08:19:29;;;;;;;;;;;18.30;99.90;;;;;;5059415;28;20000;-57
2022/10/19 08:21:54;;;;;;;;;;;18.40;99.90;;;;;;5057232;28;19909;-57
2022/10/19 08:24:20;;;;;;;;;;;18.40;99.90;;;;;;5057912;28;20282;-56
2022/10/19 08:26:46;;;;;;;;;;;18.50;99.80;;;;;;5058451;28;19980;-57
2022/10/19 08:29:13;;;;;;;;;;;18.50;99.90;;;;;;5058357;28;19952;-57
2022/10/19 08:31:39;;;;;;;;;;;18.50;99.90;;;;;;5058640;28;19995;-56
2022/10/19 08:34:05;;;;;;;;;;;18.50;99.80;;;;;;5059092;28;19909;-56
2022/10/19 08:36:31;;;;;;;;;;;18.60;99.80;;;;;;5058499;28;19939;-56
2022/10/19 08:38:57;;;;;;;;;;;18.80;99.60;;;;;;5058850;28;19963;-57
2022/10/19 08:41:31;;;;;;;;;;;18.90;99.00;;;;;;5058714;28;19944;-55
2022/10/19 08:44:16;;;;;;;;;;;19.10;99.20;;;;;;5058790;28;19909;-57
2022/10/19 08:47:00;;;;;;;;;;;19.20;99.40;;;;;;5058738;28;20260;-56
2022/10/19 08:49:27;;;;;;;;;;;19.40;98.70;;;;;;5058587;28;19913;-57
2022/10/19 08:52:00;;;;;;;;;;;19.70;99.20;;;;;;5058723;28;20012;-56
2022/10/19 08:54:34;;;;;;;;;;;19.90;98.50;;;;;;5059136;28;20007;-57
2022/10/19 08:57:23;;;;;;;;;;;20.00;97.30;;;;;;5058449;28;19908;-57
2022/10/19 09:00:01;;;;;;;;;;;19.90;96.70;;;;;;5058417;28;19909;-57
2022/10/19 09:02:33;;;;;;;;;;;19.90;96.90;;;;;;5058364;28;19996;-57
2022/10/19 09:05:02;;;;;;;;;;;20.10;97.30;;;;;;5058299;28;19987;-56
2022/10/19 09:07:33;;;;;;;;;;;20.30;96.50;;;;;;5058437;28;19961;-57
2022/10/19 09:09:59;;;;;;;;;;;20.30;96.40;;;;;;5058095;28;19913;-57
2022/10/19 09:12:44;;;;;;;;;;;20.30;97.00;;;;;;5056830;28;20094;-57
2022/10/19 09:15:32;;;;;;;;;;;20.30;96.20;;;;;;5058178;28;19948;-57
2022/10/19 09:17:59;;;;;;;;;;;20.30;96.10;;;;;;5057958;28;19912;-56
2022/10/19 09:20:28;;;;;;;;;;;20.30;95.50;;;;;;5058088;28;19916;-57
2022/10/19 09:23:02;;;;;;;;;;;20.30;96.00;;;;;;5058218;28;19936;-57
2022/10/19 09:25:28;;;;;;;;;;;20.20;95.40;;;;;;5058186;28;20279;-57
2022/10/19 09:28:04;;;;;;;;;;;20.10;95.70;;;;;;5058136;28;19954;-57
2022/10/19 09:30:30;;;;;;;;;;;20.00;95.10;;;;;;5058356;28;19952;-56
2022/10/19 09:32:59;;;;;;;;;;;19.80;94.80;;;;;;5057982;28;19935;-56
2022/10/19 09:35:27;;;;;;;;;;;19.90;96.20;;;;;;5057905;28;19913;-56
2022/10/19 09:37:53;;;;;;;;;;;19.90;94.90;;;;;;5058301;28;19909;-55
2022/10/19 09:40:21;;;;;;;;;;;20.00;96.20;;;;;;5057815;28;19916;-56
2022/10/19 09:42:51;;;;;;;;;;;20.00;95.60;;;;;;5057488;28;19995;-56
2022/10/19 09:45:32;;;;;;;;;;;20.00;95.80;;;;;;5057811;28;19917;-57
2022/10/19 09:47:59;;;;;;;;;;;19.90;95.50;;;;;;5057664;28;20348;-56
2022/10/19 09:50:26;;;;;;;;;;;19.80;95.60;;;;;;5057894;28;19916;-57
2022/10/19 09:52:53;;;;;;;;;;;20.00;95.70;;;;;;5057872;28;20308;-57
2022/10/19 09:55:23;;;;;;;;;;;20.40;95.90;;;;;;5057757;28;19909;-57
2022/10/19 09:57:50;;;;;;;;;;;21.10;95.00;;;;;;5057887;28;19931;-57
2022/10/19 10:00:17;;;;;;;;;;;21.60;94.90;;;;;;5057549;28;19915;-56
2022/10/19 10:02:47;;;;;;;;;;;21.70;93.60;;;;;;5057667;28;19931;-57
2022/10/19 10:05:14;;;;;;;;;;;21.60;92.50;;;;;;5057645;28;19985;-57
2022/10/19 10:07:40;;;;;;;;;;;21.60;93.00;;;;;;5057485;28;19913;-58
2022/10/19 10:10:18;;;;;;;;;;;21.50;92.30;;;;;;5057666;28;19917;-57
2022/10/19 10:12:44;;;;;;;;;;;21.40;92.80;;;;;;5057052;28;19992;-55
2022/10/19 10:15:15;;;;;;;;;;;21.90;94.10;;;;;;5057563;28;19944;-56
2022/10/19 10:17:43;;;;;;;;;;;22.40;93.30;;;;;;5057803;28;19908;-57
2022/10/19 10:20:26;;;;;;;;;;;22.30;91.40;;;;;;5057371;28;19959;-57
2022/10/19 10:23:02;;;;;;;;;;;21.80;91.10;;;;;;5057336;28;19912;-57
2022/10/19 10:25:30;;;;;;;;;;;21.60;91.80;;;;;;5057149;28;19948;-57
2022/10/19 10:28:15;;;;;;;;;;;21.90;91.90;;;;;;5057434;28;19916;-56
2022/10/19 10:30:43;;;;;;;;;;;22.50;91.90;;;;;;5057542;28;19912;-57
2022/10/19 10:33:13;;;;;;;;;;;23.10;91.20;;;;;;5057189;28;19908;-58
2022/10/19 10:35:38;;;;;;;;;;;23.40;89.60;;;;;;5057355;28;20015;-58
2022/10/19 10:38:24;;;;;;;;;;;23.60;90.30;;;;;;5057269;28;19958;-57
2022/10/19 10:40:51;;;;;;;;;;;23.70;86.30;;;;;;5057187;28;19941;-57
2022/10/19 10:43:19;;;;;;;;;;;23.60;85.70;;;;;;5057301;28;19916;-58
2022/10/19 10:45:46;;;;;;;;;;;23.60;88.90;;;;;;5057324;28;19909;-57
2022/10/19 10:48:29;;;;;;;;;;;23.70;90.80;;;;;;5057225;28;19919;-57
2022/10/19 10:50:55;;;;;;;;;;;23.70;87.50;;;;;;5057489;28;19908;-57
2022/10/19 10:53:32;;;;;;;;;;;23.60;90.70;;;;;;5057514;28;19913;-57
2022/10/19 10:55:58;;;;;;;;;;;23.60;89.50;;;;;;5059716;28;19955;-57
2022/10/19 10:58:34;;;;;;;;;;;23.10;85.20;;;;;;5060873;28;19909;-57
2022/10/19 11:01:02;;;;;;;;;;;22.90;86.90;;;;;;5060614;28;19909;-57
2022/10/19 11:03:29;;;;;;;;;;;22.90;88.50;;;;;;5060723;28;19913;-57
2022/10/19 11:05:56;;;;;;;;;;;23.10;90.00;;;;;;5060247;28;19966;-57
2022/10/19 11:08:34;;;;;;;;;;;23.20;87.90;;;;;;5060554;28;19917;-57
2022/10/19 11:11:04;;;;;;;;;;;23.30;90.80;;;;;;5060618;28;19909;-56
2022/10/19 11:13:37;;;;;;;;;;;23.30;89.50;;;;;;5060281;28;19909;-57
2022/10/19 11:16:16;;;;;;;;;;;23.00;86.20;;;;;;5060538;28;19908;-57
2022/10/19 11:18:45;;;;;;;;;;;23.00;89.70;;;;;;5060456;28;19959;-57
2022/10/19 11:21:13;;;;;;;;;;;22.80;87.30;;;;;;5060042;28;20004;-57
2022/10/19 11:23:45;;;;;;;;;;;22.70;85.60;;;;;;5060157;28;19909;-55
2022/10/19 11:26:17;;;;;;;;;;;22.80;90.20;;;;;;5060181;28;19915;-57
2022/10/19 11:28:48;;;;;;;;;;;22.90;83.80;;;;;;5060190;28;19982;-57
2022/10/19 11:31:19;;;;;;;;;;;23.00;86.10;;;;;;5060511;28;19909;-57
2022/10/19 11:33:45;;;;;;;;;;;23.20;86.10;;;;;;5060133;28;19912;-58
2022/10/19 11:36:28;;;;;;;;;;;23.10;85.00;;;;;;5059721;28;20418;-56
2022/10/19 11:38:57;;;;;;;;;;;23.20;83.50;;;;;;5060259;28;20050;-57
2022/10/19 11:41:38;;;;;;;;;;;23.60;84.30;;;;;;5060051;28;19916;-57
2022/10/19 11:44:03;;;;;;;;;;;23.90;86.20;;;;;;5059673;28;19909;-57
2022/10/19 11:46:29;;;;;;;;;;;24.00;83.10;;;;;;5059912;28;19909;-57
2022/10/19 11:49:03;;;;;;;;;;;24.20;84.40;;;;;;5059574;28;19966;-57
2022/10/19 11:51:36;;;;;;;;;;;24.20;80.60;;;;;;5059802;28;19913;-57
2022/10/19 11:54:34;;;;;;;;;;;24.50;85.50;;;;;;5059565;28;19916;-57
2022/10/19 11:57:03;;;;;;;;;;;24.30;76.50;;;;;;5058443;28;19916;-58
2022/10/19 11:59:40;;;;;;;;;;;24.60;85.40;;;;;;5059493;28;19955;-57
2022/10/19 12:02:18;;;;;;;;;;;25.00;80.00;;;;;;5059639;28;20334;-56
2022/10/19 12:04:49;;;;;;;;;;;24.70;79.00;;;;;;5059481;28;19958;-59
2022/10/19 12:07:23;;;;;;;;;;;24.70;81.50;;;;;;5058676;28;20016;-57
2022/10/19 12:09:54;;;;;;;;;;;24.70;76.50;;;;;;5060107;28;19924;-56
2022/10/19 12:12:20;;;;;;;;;;;24.40;77.90;;;;;;5059271;28;19909;-57
2022/10/19 12:14:47;;;;;;;;;;;24.00;84.20;;;;;;5059264;28;19909;-57
2022/10/19 12:17:17;;;;;;;;;;;23.80;79.70;;;;;;5059146;28;19915;-57
2022/10/19 12:19:48;;;;;;;;;;;23.60;78.70;;;;;;5059974;28;19909;-57
2022/10/19 12:22:19;;;;;;;;;;;23.20;81.80;;;;;;5058946;28;19959;-56
2022/10/19 12:24:46;;;;;;;;;;;23.00;81.20;;;;;;5056920;28;20023;-56
2022/10/19 12:27:13;;;;;;;;;;;22.40;83.40;;;;;;5058089;28;19908;-57
2022/10/19 12:29:40;;;;;;;;;;;22.10;84.70;;;;;;5058636;28;20426;-56
2022/10/19 12:32:08;;;;;;;;;;;21.90;86.40;;;;;;5058994;28;19909;-56
2022/10/19 12:34:34;;;;;;;;;;;22.00;85.90;;;;;;5058794;28;19908;-57
2022/10/19 12:37:06;;;;;;;;;;;21.80;86.50;;;;;;5058458;28;19909;-56
2022/10/19 12:39:45;;;;;;;;;;;21.70;87.20;;;;;;5058815;28;20396;-57
2022/10/19 12:42:17;;;;;;;;;;;21.40;88.20;;;;;;5058591;28;19909;-56
2022/10/19 12:44:48;;;;;;;;;;;21.40;89.10;;;;;;5058572;28;19952;-57
2022/10/19 12:47:19;;;;;;;;;;;21.10;89.00;;;;;;5058327;28;19966;-57
2022/10/19 12:49:44;;;;;;;;;;;20.90;90.20;;;;;;5058300;28;19920;-56
2022/10/19 12:52:10;;;;;;;;;;;20.80;90.60;;;;;;5058426;28;19909;-56
2022/10/19 12:54:38;;;;;;;;;;;20.80;90.70;;;;;;5058526;28;19915;-57
2022/10/19 12:57:18;;;;;;;;;;;20.80;90.30;;;;;;5058365;28;19908;-57
2022/10/19 12:59:43;;;;;;;;;;;20.70;90.90;;;;;;5058378;28;19912;-56
2022/10/19 13:02:24;;;;;;;;;;;20.70;91.10;;;;;;5058138;28;20319;-57
2022/10/19 13:04:52;;;;;;;;;;;20.70;91.20;;;;;;5058066;28;19916;-56
2022/10/19 13:07:19;;;;;;;;;;;20.50;91.10;;;;;;5058470;28;19924;-56
2022/10/19 13:09:45;;;;;;;;;;;20.50;91.70;;;;;;5058145;28;19916;-56
2022/10/19 13:12:14;;;;;;;;;;;20.50;91.30;;;;;;5058101;28;19909;-56
2022/10/19 13:14:43;;;;;;;;;;;20.40;91.70;;;;;;5057821;28;20000;-56
2022/10/19 13:17:08;;;;;;;;;;;20.40;91.80;;;;;;5057803;28;19935;-56
2022/10/19 13:19:34;;;;;;;;;;;20.40;91.80;;;;;;5058008;28;19908;-56
2022/10/19 13:22:00;;;;;;;;;;;20.40;91.70;;;;;;5058148;28;20003;-56
2022/10/19 13:24:28;;;;;;;;;;;20.30;91.90;;;;;;5058069;28;20399;-56
2022/10/19 13:27:02;;;;;;;;;;;20.20;92.00;;;;;;5057806;28;19931;-57
2022/10/19 13:29:37;;;;;;;;;;;20.10;92.30;;;;;;5057822;28;20016;-57
2022/10/19 13:32:22;;;;;;;;;;;20.10;92.60;;;;;;5057982;28;19909;-56
2022/10/19 13:34:47;;;;;;;;;;;20.00;92.70;;;;;;5058039;28;19935;-56
2022/10/19 13:37:15;;;;;;;;;;;20.00;92.90;;;;;;5058032;28;20352;-56
2022/10/19 13:39:41;;;;;;;;;;;20.00;92.90;;;;;;5057786;28;19909;-57
2022/10/19 13:42:21;;;;;;;;;;;20.00;93.20;;;;;;5058069;28;19908;-57
2022/10/19 13:44:48;;;;;;;;;;;19.80;93.40;;;;;;5057552;28;19909;-56
2022/10/19 13:47:14;;;;;;;;;;;19.80;93.60;;;;;;5057486;28;20306;-56
2022/10/19 13:49:52;;;;;;;;;;;19.80;93.70;;;;;;5057632;28;19936;-57
2022/10/19 13:52:21;;;;;;;;;;;19.70;93.90;;;;;;5057716;28;20273;-57
2022/10/19 13:54:53;;;;;;;;;;;19.60;94.00;;;;;;5056627;28;19916;-56
2022/10/19 13:57:19;;;;;;;;;;;19.60;94.00;;;;;;5057830;28;19909;-55
2022/10/19 13:59:57;;;;;;;;;;;19.60;94.10;;;;;;5057793;28;19932;-57
2022/10/19 14:02:41;;;;;;;;;;;19.50;94.30;;;;;;5057749;28;19916;-56
2022/10/19 14:05:09;;;;;;;;;;;19.50;94.30;;;;;;5057334;28;19913;-56
2022/10/19 14:07:41;;;;;;;;;;;19.50;94.10;;;;;;5057587;28;20014;-56
2022/10/19 14:10:13;;;;;;;;;;;19.60;94.00;;;;;;5056541;28;19917;-56
2022/10/19 14:12:40;;;;;;;;;;;19.60;93.90;;;;;;5056127;28;19916;-56
2022/10/19 14:15:26;;;;;;;;;;;19.70;93.90;;;;;;5056787;28;19909;-56
2022/10/19 14:17:52;;;;;;;;;;;19.80;94.00;;;;;;5057128;28;20002;-56
2022/10/19 14:20:26;;;;;;;;;;;19.80;94.20;;;;;;5057805;28;20284;-57
2022/10/19 14:22:52;;;;;;;;;;;19.70;94.30;;;;;;5057380;28;20376;-57
2022/10/19 14:25:21;;;;;;;;;;;19.60;94.50;;;;;;5057725;28;19940;-57